Caineville, Utah
Current Conditions -  °F | °C
As of 5:53 PM on Saturday 25 Oct 2014 (Local Time) from KBCE Reporting Station
Few Clouds Few Clouds  
Wind Chill: 61°   Ceiling: Unl
Heat Index: 61°   Visibility: 10mi
Dew Point: 35°   Wind: 15mph
Humidity: 38%   Direction: 220°SW
Pressure: 30.24"   Gusts: 21mph
Location:  38.2517°N, 111.706°W
Report Text: KBCE 252353Z AUTO 22013G18KT 10SM FEW060 16/02 A3024 RMK AO2 SLP172 T01610017 10183 20139 58012 TSNO
Loading
Personal Weather Stations






























Interactive Weather Map
Tropical Storm Tracking
New forecast layout! Learn more

10-Day Weather Forecast

Advertisements
Track Severe Weather on mobile